METAR Data
IDs: Format: Raw Decoded Include TAF

Data at: 0255 UTC 12 May 2021

KFWA 120154Z 30005KT 10SM CLR 08/M02 A3035 RMK AO2 SLP282 T00781017 $
KFWA 120054Z 32007KT 10SM FEW250 09/M02 A3032 RMK AO2 SLP272 T00891017 $
KFWA 112354Z 34009KT 10SM FEW060 FEW250 11/M01 A3030 RMK AO2 SLP264 T01061006 10128 20106 53010 $
KFWA 112254Z 33009KT 10SM FEW065 FEW250 12/M01 A3029 RMK AO2 SLP260 T01171011 $
KFWA 112154Z 34011G20KT 10SM FEW065 SCT250 12/M01 A3028 RMK AO2 SLP256 T01221006 $
KFWA 112054Z 35015G22KT 10SM SCT060 BKN250 12/01 A3027 RMK AO2 SLP253 SCT V FEW T01220006 56015 $
KFWA 111954Z 32011G18KT 10SM SCT065 SCT250 12/00 A3028 RMK AO2 SLP257 T01220000 $
KFWA 111854Z 35014G21KT 10SM SCT065 BKN250 11/M01 A3029 RMK AO2 PK WND 33026/1831 SLP261 SCT V BKN T01111006 $
KFWA 111754Z 34017G22KT 10SM BKN060 11/M01 A3031 RMK AO2 SLP268 T01111006 10117 20050 58001 $
KFWA 111654Z 34014G21KT 10SM BKN055 10/00 A3032 RMK AO2 SLP269 T01000000 $
KFWA 111554Z 34011G20KT 10SM SCT050 SCT110 11/01 A3032 RMK AO2 SLP270 T01060006 $
KFWA 111454Z 36010KT 10SM FEW030 FEW110 09/01 A3032 RMK AO2 SLP268 T00940006 53010 $
KFWA 111354Z 01007KT 10SM FEW110 08/00 A3030 RMK AO2 SLP263 T00830000 $
KFWA 111254Z 35009KT 10SM FEW090 FEW110 07/M01 A3029 RMK AO2 SLP262 T00671006 $
KFWA 111154Z 01003KT 10SM FEW090 SCT110 05/M01 A3029 RMK AO2 SLP259 T00501006 10067 20039 53024 $
KFWA 111054Z 35005KT 10SM BKN090 BKN120 04/M01 A3026 RMK AO2 SLP250 T00391006 $
KFWA 110954Z 35005KT 10SM BKN120 04/M01 A3023 RMK AO2 SLP240 T00391006 $
KFWA 110854Z 35005KT 10SM SCT110 BKN130 04/M01 A3021 RMK AO2 SLP234 T00441006 53010 $
KFWA 110754Z 35008KT 10SM FEW100 BKN130 05/M01 A3019 RMK AO2 SLP228 T00501011 $
KFWA 110654Z 34008KT 10SM BKN100 BKN120 BKN140 06/M01 A3019 RMK AO2 SLP226 T00561011 $
KFWA 110554Z 35007KT 10SM FEW075 BKN110 07/M02 A3018 RMK AO2 SLP223 60000 T00671017 10117 20067 51005 $
KFWA 110454Z 34009KT 10SM BKN080 OVC100 08/01 A3018 RMK AO2 SLP222 T00780006 401390011 $
KFWA 110354Z 34008KT 10SM OVC090 08/01 A3018 RMK AO2 RAE16 SLP220 P0000 T00830011 $
KFWA 110254Z 34008KT 10SM -RA FEW045 OVC070 09/03 A3017 RMK AO2 RAB52 SLP218 P0000 60000 T00890033 52015 $
KFWA 110154Z 32005KT 10SM FEW044 SCT085 OVC110 10/03 A3015 RMK AO2 SLP213 T01000028 $
KFWA 110054Z 33005KT 10SM BKN048 OVC070 10/04 A3014 RMK AO2 SLP209 T01000039 $
KFWA 102354Z 33008KT 10SM BKN050 BKN110 OVC250 12/04 A3012 RMK AO2 SLP204 60000 T01170044 10139 20117 53001 $
KFWA 102254Z 27007KT 10SM BKN055 BKN250 13/04 A3012 RMK AO2 SLP203 T01280039 $
KFWA 102154Z 27010KT 10SM SCT055 SCT250 14/04 A3011 RMK AO2 SLP200 T01390044 $
KFWA 102054Z 27012KT 10SM FEW055 BKN100 13/04 A3012 RMK AO2 SLP204 60000 T01330044 58003 $
KFWA 101954Z 30009KT 10SM SCT047 BKN070 BKN230 12/04 A3013 RMK AO2 RAE13 SLP206 P0000 T01220039 $
KFWA 101854Z 31010G17KT 10SM -RA FEW045 BKN060 OVC230 13/04 A3013 RMK AO2 RAB10 SLP208 P0000 T01280039 $
KFWA 101754Z 27012KT 10SM FEW040 BKN075 BKN090 OVC220 13/05 A3013 RMK AO2 SLP207 T01280050 10133 20050 53002 $
KFWA 101654Z 26006KT 10SM FEW036 BKN070 BKN120 12/05 A3013 RMK AO2 SLP206 T01220050 $
KFWA 101554Z 24008KT 10SM FEW033 SCT075 BKN120 13/06 A3013 RMK AO2 SLP206 T01280061 $